Terminal Aerodrome Forecast
Issued by NWS

Home | Current Version | Previous Version | Text Only | Print | Product List | Glossary Off
Versions: 1 2 3 4 5 6 7 8 9 10 11 12 13 14 15

000
FTUS43 KMPX 221700
TAFAXN
TAF
KAXN 221730Z 2218/2318 02005KT P6SM BKN250
     FM230000 12008KT P6SM SCT100 BKN200
     FM230700 13012KT P6SM BKN060 OVC100
     FM231300 13016G24KT 5SM -SHRA OVC050=

USA.gov is the U.S. government's official web portal to all federal, state and local government web resources and services.